createdAt,value
2023-04-08T00:01:33.151Z,99.90
2023-04-08T00:04:01.230Z,99.90
2023-04-08T00:06:29.331Z,99.90
2023-04-08T00:08:57.310Z,99.90
2023-04-08T00:11:25.337Z,99.90
2023-04-08T00:13:53.392Z,99.90
2023-04-08T00:16:22.968Z,99.90
2023-04-08T00:18:51.293Z,99.90
2023-04-08T00:21:20.778Z,99.90
2023-04-08T00:23:48.841Z,99.90
2023-04-08T00:26:16.864Z,99.90
2023-04-08T00:28:45.134Z,99.90
2023-04-08T00:31:13.180Z,99.90
2023-04-08T00:33:42.522Z,99.90
2023-04-08T00:36:11.885Z,99.90
2023-04-08T00:38:39.918Z,99.90
2023-04-08T00:41:07.942Z,99.90
2023-04-08T00:43:35.956Z,99.90
2023-04-08T00:46:04.485Z,99.90
2023-04-08T00:48:32.641Z,99.90
2023-04-08T00:51:02.211Z,99.90
2023-04-08T00:53:32.593Z,99.90
2023-04-08T00:56:01.366Z,99.90
2023-04-08T00:58:30.605Z,99.90
2023-04-08T01:01:04.533Z,99.90
2023-04-08T01:03:43.469Z,99.90
2023-04-08T01:06:22.751Z,99.90
2023-04-08T01:08:53.318Z,99.90
2023-04-08T01:11:22.420Z,99.90
2023-04-08T01:13:54.061Z,99.90
2023-04-08T01:16:23.423Z,99.90
2023-04-08T01:18:52.711Z,99.90
2023-04-08T01:21:24.796Z,99.90
2023-04-08T01:24:00.647Z,99.90
2023-04-08T01:26:30.664Z,99.90
2023-04-08T01:29:02.690Z,99.90
2023-04-08T01:31:31.939Z,99.90
2023-04-08T01:34:02.625Z,99.90
2023-04-08T01:36:33.173Z,99.90
2023-04-08T01:39:03.092Z,99.90
2023-04-08T01:41:35.053Z,99.90
2023-04-08T01:44:05.264Z,99.90
2023-04-08T01:46:34.222Z,99.90
2023-04-08T01:49:04.386Z,99.90
2023-04-08T01:51:32.874Z,99.90
2023-04-08T01:54:00.943Z,99.90
2023-04-08T01:56:34.036Z,99.90
2023-04-08T01:59:04.688Z,99.90
2023-04-08T02:01:36.354Z,99.90
2023-04-08T02:04:05.325Z,99.90
2023-04-08T02:06:34.327Z,99.90
2023-04-08T02:09:02.490Z,99.90
2023-04-08T02:11:31.854Z,99.90
2023-04-08T02:14:00.087Z,99.90
2023-04-08T02:16:34.921Z,99.90
2023-04-08T02:19:10.457Z,99.90
2023-04-08T02:21:45.381Z,99.90
2023-04-08T02:24:15.742Z,99.90
2023-04-08T02:26:48.263Z,99.90
2023-04-08T02:29:17.596Z,99.90
2023-04-08T02:31:46.889Z,99.90
2023-04-08T02:34:16.086Z,99.90
2023-04-08T02:36:46.152Z,99.90
2023-04-08T02:39:14.642Z,99.90
2023-04-08T02:41:42.646Z,99.90
2023-04-08T02:44:12.029Z,99.90
2023-04-08T02:46:42.194Z,99.90
2023-04-08T02:49:10.266Z,99.90
2023-04-08T02:51:38.312Z,99.90
2023-04-08T02:54:06.329Z,99.90
2023-04-08T02:56:34.344Z,99.90
2023-04-08T02:59:02.331Z,99.90
2023-04-08T03:01:32.041Z,99.90
2023-04-08T03:04:00.134Z,99.90
2023-04-08T03:06:28.184Z,99.90
2023-04-08T03:08:56.149Z,99.90
2023-04-08T03:11:24.125Z,99.90
2023-04-08T03:13:52.312Z,99.90
2023-04-08T03:16:20.530Z,99.90
2023-04-08T03:18:50.885Z,99.90
2023-04-08T03:21:19.285Z,99.90
2023-04-08T03:23:47.239Z,99.90
2023-04-08T03:26:15.385Z,99.90
2023-04-08T03:28:43.433Z,99.90
2023-04-08T03:31:11.576Z,99.90
2023-04-08T03:33:39.522Z,99.90
2023-04-08T03:36:09.930Z,99.90
2023-04-08T03:38:37.889Z,99.90
2023-04-08T03:41:06.009Z,99.90
2023-04-08T03:43:35.206Z,99.90
2023-04-08T03:46:04.849Z,99.90
2023-04-08T03:48:33.730Z,99.90
2023-04-08T03:51:01.766Z,99.90
2023-04-08T03:53:31.139Z,99.90
2023-04-08T03:55:59.170Z,99.90
2023-04-08T03:58:27.318Z,99.90
2023-04-08T04:00:55.440Z,99.90
2023-04-08T04:03:23.738Z,99.90
2023-04-08T04:05:52.120Z,99.90
2023-04-08T04:08:20.284Z,99.90
2023-04-08T04:10:49.644Z,99.90
2023-04-08T04:13:17.625Z,99.90
2023-04-08T04:15:45.674Z,99.90
2023-04-08T04:18:13.818Z,99.90
2023-04-08T04:20:43.007Z,99.90
2023-04-08T04:23:11.065Z,99.90
2023-04-08T04:25:42.616Z,99.90
2023-04-08T04:28:11.920Z,99.90
2023-04-08T04:30:40.072Z,99.90
2023-04-08T04:33:08.535Z,99.90
2023-04-08T04:35:36.533Z,99.90
2023-04-08T04:38:08.070Z,99.90
2023-04-08T04:40:36.147Z,99.90
2023-04-08T04:43:04.074Z,99.90
2023-04-08T04:45:33.480Z,99.90
2023-04-08T04:48:01.498Z,99.90
2023-04-08T04:50:29.574Z,99.90
2023-04-08T04:52:57.616Z,99.90
2023-04-08T04:55:25.735Z,99.90
2023-04-08T04:57:53.729Z,99.90
2023-04-08T05:00:21.774Z,99.90
2023-04-08T05:02:51.275Z,99.90
2023-04-08T05:05:19.775Z,99.90
2023-04-08T05:07:47.902Z,99.90
2023-04-08T05:10:15.997Z,99.90
2023-04-08T05:12:43.933Z,99.90
2023-04-08T05:15:12.428Z,99.90
2023-04-08T05:17:40.464Z,99.90
2023-04-08T05:20:10.598Z,99.90
2023-04-08T05:22:38.588Z,99.90
2023-04-08T05:25:07.401Z,99.90
2023-04-08T05:27:35.631Z,99.90
2023-04-08T05:30:04.191Z,99.90
2023-04-08T05:32:32.191Z,99.90
2023-04-08T05:35:03.015Z,99.90
2023-04-08T05:37:32.370Z,99.90
2023-04-08T05:40:00.457Z,99.90
2023-04-08T05:42:28.436Z,99.90
2023-04-08T05:44:56.463Z,99.90
2023-04-08T05:47:24.444Z,99.90
2023-04-08T05:49:52.495Z,99.90
2023-04-08T05:52:20.508Z,99.90
2023-04-08T05:54:49.865Z,99.90
2023-04-08T05:57:17.882Z,99.90
2023-04-08T05:59:46.040Z,99.90
2023-04-08T06:02:14.149Z,99.90
2023-04-08T06:04:42.345Z,99.90
2023-04-08T06:07:10.426Z,99.90
2023-04-08T06:09:38.446Z,99.90
2023-04-08T06:12:07.989Z,99.90
2023-04-08T06:14:35.982Z,99.90
2023-04-08T06:17:04.020Z,99.90
2023-04-08T06:19:32.107Z,99.90
2023-04-08T06:22:00.233Z,99.90
2023-04-08T06:24:29.464Z,99.90
2023-04-08T06:26:57.683Z,99.90
2023-04-08T06:29:27.042Z,99.90
2023-04-08T06:31:55.105Z,99.90
2023-04-08T06:34:23.080Z,99.90
2023-04-08T06:36:51.380Z,99.90
2023-04-08T06:39:19.435Z,99.90
2023-04-08T06:41:47.458Z,99.90
2023-04-08T06:44:37.750Z,99.90
2023-04-08T06:47:05.831Z,99.90
2023-04-08T06:49:33.773Z,99.90
2023-04-08T06:52:01.748Z,99.90
2023-04-08T06:54:29.660Z,99.90
2023-04-08T06:56:57.619Z,99.90
2023-04-08T06:59:25.643Z,99.90
2023-04-08T07:01:55.063Z,99.90
2023-04-08T07:04:23.278Z,99.90
2023-04-08T07:06:51.580Z,99.90
2023-04-08T07:09:19.657Z,99.90
2023-04-08T07:11:47.608Z,99.90
2023-04-08T07:14:15.599Z,99.90
2023-04-08T07:16:43.571Z,99.90
2023-04-08T07:19:12.908Z,99.90
2023-04-08T07:21:41.597Z,99.90
2023-04-08T07:24:09.619Z,99.90
2023-04-08T07:26:37.620Z,99.90
2023-04-08T07:29:05.646Z,99.90
2023-04-08T07:31:33.649Z,99.90
2023-04-08T07:34:01.761Z,99.90
2023-04-08T07:36:31.137Z,99.90
2023-04-08T07:38:59.167Z,99.90
2023-04-08T07:41:27.170Z,99.90
2023-04-08T07:43:55.909Z,99.90
2023-04-08T07:46:23.942Z,99.90
2023-04-08T07:48:52.204Z,99.90
2023-04-08T07:51:20.948Z,99.90
2023-04-08T07:53:50.570Z,99.90
2023-04-08T07:56:19.213Z,99.90
2023-04-08T07:58:48.695Z,99.90
2023-04-08T08:01:19.848Z,99.90
2023-04-08T08:03:48.835Z,99.90
2023-04-08T08:06:17.112Z,99.90
2023-04-08T08:08:45.653Z,99.90
2023-04-08T08:11:15.154Z,99.90
2023-04-08T08:13:43.249Z,99.90
2023-04-08T08:16:12.032Z,99.90
2023-04-08T08:18:41.095Z,99.90
2023-04-08T08:21:10.016Z,99.90
2023-04-08T08:23:38.778Z,99.90
2023-04-08T08:26:09.814Z,99.90
2023-04-08T08:28:39.692Z,99.90
2023-04-08T08:31:08.045Z,99.90
2023-04-08T08:33:36.320Z,99.90
2023-04-08T08:36:05.917Z,99.90
2023-04-08T08:38:34.447Z,99.90
2023-04-08T08:41:04.005Z,99.90
2023-04-08T08:43:33.429Z,99.90
2023-04-08T08:46:03.608Z,99.90
2023-04-08T08:48:32.598Z,99.90
2023-04-08T08:51:00.762Z,99.90
2023-04-08T08:53:32.752Z,99.90
2023-04-08T08:58:33.395Z,99.90
2023-04-08T09:01:02.761Z,99.90
2023-04-08T09:03:31.020Z,99.90
2023-04-08T09:06:00.722Z,99.90
2023-04-08T09:08:31.241Z,99.90
2023-04-08T09:11:13.411Z,99.90
2023-04-08T09:13:42.134Z,99.90
2023-04-08T09:16:14.143Z,99.90
2023-04-08T09:18:44.491Z,99.90
2023-04-08T09:21:13.892Z,99.90
2023-04-08T09:23:44.047Z,99.90
2023-04-08T09:26:13.021Z,99.90
2023-04-08T09:28:41.857Z,99.90
2023-04-08T09:31:25.170Z,99.90
2023-04-08T09:33:55.442Z,99.90
2023-04-08T09:36:23.824Z,99.90
2023-04-08T09:38:51.854Z,99.90
2023-04-08T09:41:23.445Z,99.90
2023-04-08T09:43:54.557Z,99.90
2023-04-08T09:46:28.877Z,99.90
2023-04-08T09:49:03.722Z,99.90
2023-04-08T09:51:37.712Z,99.90
2023-04-08T09:54:14.847Z,99.90
2023-04-08T09:56:48.868Z,99.90
2023-04-08T09:59:21.697Z,99.90
2023-04-08T10:01:55.737Z,99.90
2023-04-08T10:04:25.435Z,99.90
2023-04-08T10:06:58.380Z,99.90
2023-04-08T10:09:27.992Z,99.90
2023-04-08T10:11:56.893Z,99.90
2023-04-08T10:14:28.524Z,99.90
2023-04-08T10:17:27.342Z,99.90
2023-04-08T10:19:55.645Z,99.90
2023-04-08T10:22:51.685Z,99.90
2023-04-08T10:25:33.622Z,99.90
2023-04-08T10:28:03.325Z,99.90
2023-04-08T10:30:41.646Z,99.90
2023-04-08T10:33:15.970Z,99.90
2023-04-08T10:35:48.543Z,99.90
2023-04-08T10:38:17.725Z,99.90
2023-04-08T10:40:46.616Z,99.90
2023-04-08T10:43:15.959Z,99.90
2023-04-08T10:45:47.942Z,99.90
2023-04-08T10:48:19.888Z,99.90
2023-04-08T10:50:55.122Z,99.90
2023-04-08T10:53:30.051Z,99.90
2023-04-08T10:56:06.208Z,99.90
2023-04-08T10:58:34.630Z,99.90
2023-04-08T11:01:07.865Z,99.90
2023-04-08T11:03:38.061Z,99.90
2023-04-08T11:06:07.460Z,99.90
2023-04-08T11:08:37.564Z,99.90
2023-04-08T11:11:08.934Z,99.90
2023-04-08T11:13:37.665Z,99.90
2023-04-08T11:16:17.211Z,99.90
2023-04-08T11:18:47.913Z,99.90
2023-04-08T11:21:17.295Z,99.90
2023-04-08T11:23:45.460Z,99.90
2023-04-08T11:26:14.693Z,99.90
2023-04-08T11:28:43.335Z,99.90
2023-04-08T11:31:12.323Z,99.90
2023-04-08T11:33:48.935Z,99.90
2023-04-08T11:36:19.148Z,99.90
2023-04-08T11:38:48.203Z,99.90
2023-04-08T11:41:16.829Z,99.90
2023-04-08T11:43:57.806Z,99.90
2023-04-08T11:46:25.962Z,99.90
2023-04-08T11:49:07.773Z,99.90
2023-04-08T11:51:37.856Z,99.90
2023-04-08T11:54:06.574Z,99.90
2023-04-08T11:56:46.824Z,99.90
2023-04-08T11:59:14.911Z,99.90
2023-04-08T12:01:43.339Z,99.90
2023-04-08T12:04:12.950Z,99.90
2023-04-08T12:06:43.466Z,99.90
2023-04-08T12:09:11.595Z,99.90
2023-04-08T12:11:39.621Z,99.90
2023-04-08T12:14:07.634Z,99.90
2023-04-08T12:16:35.707Z,99.90
2023-04-08T12:19:03.918Z,99.90
2023-04-08T12:21:33.883Z,99.90
2023-04-08T12:24:01.950Z,99.90
2023-04-08T12:26:29.945Z,99.90
2023-04-08T12:28:57.955Z,99.90
2023-04-08T12:31:27.638Z,99.90
2023-04-08T12:33:55.685Z,99.90
2023-04-08T12:36:23.735Z,99.90
2023-04-08T12:38:53.190Z,99.90
2023-04-08T12:41:21.739Z,99.90
2023-04-08T12:43:49.727Z,99.90
2023-04-08T12:46:17.755Z,99.90
2023-04-08T12:51:15.346Z,99.90
2023-04-08T12:53:43.354Z,99.90
2023-04-08T12:56:12.760Z,99.90
2023-04-08T12:58:40.831Z,99.90
2023-04-08T13:01:08.896Z,99.90
2023-04-08T13:03:37.089Z,99.90
2023-04-08T13:06:05.158Z,99.90
2023-04-08T13:08:33.195Z,99.90
2023-04-08T13:11:01.192Z,99.90
2023-04-08T13:13:30.584Z,99.90
2023-04-08T13:15:58.897Z,99.90
2023-04-08T13:18:27.112Z,99.90
2023-04-08T13:20:55.362Z,99.90
2023-04-08T13:23:23.393Z,99.90
2023-04-08T13:25:51.377Z,99.90
2023-04-08T13:28:19.382Z,99.90
2023-04-08T13:30:48.762Z,99.90
2023-04-08T13:33:17.251Z,99.90
2023-04-08T13:35:45.348Z,99.90
2023-04-08T13:38:13.812Z,99.90
2023-04-08T13:40:42.287Z,99.90
2023-04-08T13:43:10.298Z,99.90
2023-04-08T13:45:38.842Z,99.90
2023-04-08T13:48:08.628Z,99.90
2023-04-08T13:50:36.661Z,99.90
2023-04-08T13:53:04.721Z,99.90
2023-04-08T13:55:32.732Z,99.90
2023-04-08T13:58:01.571Z,99.90
2023-04-08T14:00:31.213Z,99.90
2023-04-08T14:02:59.256Z,99.90
2023-04-08T14:05:28.644Z,99.90
2023-04-08T14:07:56.643Z,99.90
2023-04-08T14:10:24.770Z,99.90
2023-04-08T14:12:52.777Z,99.90
2023-04-08T14:15:20.793Z,99.90
2023-04-08T14:17:49.639Z,99.90
2023-04-08T14:20:17.665Z,99.90
2023-04-08T14:22:47.044Z,99.90
2023-04-08T14:25:15.524Z,99.90
2023-04-08T14:27:56.744Z,99.90
2023-04-08T14:30:26.849Z,99.90
2023-04-08T14:32:55.240Z,99.90
2023-04-08T14:35:23.325Z,99.90
2023-04-08T14:37:52.669Z,99.90
2023-04-08T14:40:20.772Z,99.90
2023-04-08T14:42:49.812Z,99.90
2023-04-08T14:45:18.512Z,98.10
2023-04-08T14:47:47.086Z,95.70
2023-04-08T14:50:16.034Z,92.60
2023-04-08T14:52:45.036Z,92.20
2023-04-08T14:55:14.688Z,92.70
2023-04-08T14:57:42.713Z,92.80
2023-04-08T15:00:11.623Z,92.80
2023-04-08T15:02:39.758Z,91.80
2023-04-08T15:05:08.482Z,90.90
2023-04-08T15:07:36.727Z,90.90
2023-04-08T15:10:04.888Z,90.20
2023-04-08T15:12:34.282Z,89.40
2023-04-08T15:15:02.238Z,86.80
2023-04-08T15:17:30.341Z,85.70
2023-04-08T15:19:58.707Z,86.80
2023-04-08T15:22:27.067Z,90.60
2023-04-08T15:24:55.349Z,93.10
2023-04-08T15:27:23.326Z,94.90
2023-04-08T15:29:52.797Z,97.00
2023-04-08T15:32:20.950Z,99.20
2023-04-08T15:34:50.662Z,99.90
2023-04-08T15:37:18.671Z,99.90
2023-04-08T15:39:46.915Z,99.90
2023-04-08T15:42:14.901Z,99.90
2023-04-08T15:44:42.900Z,99.90
2023-04-08T15:47:12.341Z,99.90
2023-04-08T15:49:40.464Z,99.90
2023-04-08T15:52:08.467Z,99.90
2023-04-08T15:54:36.679Z,99.90
2023-04-08T15:57:04.766Z,99.90
2023-04-08T15:59:33.259Z,99.90
2023-04-08T16:02:01.504Z,99.90
2023-04-08T16:04:31.026Z,99.90
2023-04-08T16:06:59.055Z,99.90
2023-04-08T16:09:27.161Z,99.90
2023-04-08T16:11:55.232Z,99.90
2023-04-08T16:14:23.254Z,99.90
2023-04-08T16:16:51.213Z,99.90
2023-04-08T16:19:22.123Z,99.90
2023-04-08T16:21:51.532Z,99.90
2023-04-08T16:24:20.832Z,99.90
2023-04-08T16:26:48.903Z,99.90
2023-04-08T16:29:16.935Z,99.90
2023-04-08T16:31:44.881Z,99.90
2023-04-08T16:34:12.866Z,99.90
2023-04-08T16:36:40.942Z,99.90
2023-04-08T16:39:10.494Z,99.90
2023-04-08T16:41:39.408Z,99.90
2023-04-08T16:44:07.593Z,99.90
2023-04-08T16:46:36.487Z,99.90
2023-04-08T16:49:04.491Z,99.90
2023-04-08T16:51:32.498Z,99.90
2023-04-08T16:54:00.976Z,99.90
2023-04-08T16:56:30.334Z,99.90
2023-04-08T16:58:58.387Z,99.90
2023-04-08T17:01:27.030Z,99.90
2023-04-08T17:03:55.364Z,99.90
2023-04-08T17:06:23.955Z,99.90
2023-04-08T17:08:52.538Z,99.90
2023-04-08T17:11:21.844Z,99.90
2023-04-08T17:13:51.507Z,99.90
2023-04-08T17:16:20.231Z,99.90
2023-04-08T17:18:48.405Z,99.90
2023-04-08T17:21:16.559Z,99.90
2023-04-08T17:23:44.586Z,99.90
2023-04-08T17:26:12.826Z,99.90
2023-04-08T17:28:40.846Z,99.90
2023-04-08T17:31:10.670Z,99.90
2023-04-08T17:33:38.795Z,99.90
2023-04-08T17:36:07.477Z,99.90
2023-04-08T17:38:39.705Z,99.90
2023-04-08T17:41:09.877Z,99.90
2023-04-08T17:43:38.072Z,99.90
2023-04-08T17:46:06.270Z,99.90
2023-04-08T17:48:36.460Z,99.90
2023-04-08T17:51:06.253Z,99.90
2023-04-08T17:53:34.975Z,99.90
2023-04-08T17:56:03.196Z,99.90
2023-04-08T17:58:31.241Z,99.90
2023-04-08T18:00:59.406Z,99.90
2023-04-08T18:03:27.759Z,99.90
2023-04-08T18:05:57.797Z,99.90
2023-04-08T18:08:25.911Z,99.90
2023-04-08T18:10:53.899Z,99.90
2023-04-08T18:13:21.888Z,99.90
2023-04-08T18:15:49.903Z,99.90
2023-04-08T18:18:20.084Z,99.90
2023-04-08T18:20:48.117Z,99.90
2023-04-08T18:23:17.542Z,99.90
2023-04-08T18:25:47.414Z,99.90
2023-04-08T18:28:15.588Z,99.90
2023-04-08T18:30:43.682Z,99.90
2023-04-08T18:33:11.830Z,99.90
2023-04-08T18:35:39.825Z,99.90
2023-04-08T18:38:07.913Z,99.90
2023-04-08T18:40:37.228Z,99.90
2023-04-08T18:43:05.999Z,99.90
2023-04-08T18:45:34.058Z,99.90
2023-04-08T18:48:02.175Z,99.90
2023-04-08T18:50:30.300Z,99.90
2023-04-08T18:52:58.259Z,99.90
2023-04-08T18:55:26.329Z,99.90
2023-04-08T18:57:55.694Z,99.90
2023-04-08T19:00:23.850Z,99.90
2023-04-08T19:02:52.031Z,99.90
2023-04-08T19:05:20.302Z,99.90
2023-04-08T19:07:48.301Z,99.90
2023-04-08T19:10:16.349Z,99.90
2023-04-08T19:12:44.326Z,99.90
2023-04-08T19:15:14.659Z,99.90
2023-04-08T19:17:42.691Z,99.90
2023-04-08T19:20:11.324Z,99.90
2023-04-08T19:22:40.650Z,99.90
2023-04-08T19:25:09.393Z,99.90
2023-04-08T19:27:37.521Z,99.90
2023-04-08T19:30:06.731Z,99.90
2023-04-08T19:32:36.469Z,99.90
2023-04-08T19:35:04.699Z,99.90
2023-04-08T19:37:32.715Z,99.90
2023-04-08T19:40:00.697Z,99.90
2023-04-08T19:42:29.115Z,99.90
2023-04-08T19:44:57.157Z,99.90
2023-04-08T19:47:25.142Z,99.90
2023-04-08T19:49:54.507Z,99.90
2023-04-08T19:52:22.512Z,99.90
2023-04-08T19:54:51.328Z,99.90
2023-04-08T19:57:19.934Z,99.90
2023-04-08T19:59:49.600Z,99.90
2023-04-08T20:02:17.711Z,99.90
2023-04-08T20:04:46.335Z,99.90
2023-04-08T20:07:15.899Z,99.90
2023-04-08T20:09:44.085Z,99.90
2023-04-08T20:12:12.217Z,99.90
2023-04-08T20:14:44.084Z,99.90
2023-04-08T20:17:12.345Z,99.90
2023-04-08T20:19:41.414Z,99.90
2023-04-08T20:22:09.466Z,99.90
2023-04-08T20:24:38.816Z,99.90
2023-04-08T20:27:06.869Z,99.90
2023-04-08T20:29:34.972Z,99.90
2023-04-08T20:32:03.360Z,99.90
2023-04-08T20:34:31.415Z,99.90
2023-04-08T20:36:59.474Z,99.90
2023-04-08T20:39:30.848Z,99.90
2023-04-08T20:42:00.222Z,99.90
2023-04-08T20:44:28.517Z,99.90
2023-04-08T20:46:56.587Z,99.90
2023-04-08T20:49:24.815Z,99.90
2023-04-08T20:51:52.837Z,99.90
2023-04-08T20:54:20.934Z,99.90
2023-04-08T20:56:48.971Z,99.90
2023-04-08T20:59:18.422Z,99.90
2023-04-08T21:01:46.503Z,99.90
2023-04-08T21:04:14.554Z,99.90
2023-04-08T21:06:42.546Z,99.90
2023-04-08T21:09:11.272Z,99.90
2023-04-08T21:11:39.333Z,99.90
2023-04-08T21:14:07.337Z,99.90
2023-04-08T21:16:36.775Z,99.90
2023-04-08T21:19:04.836Z,99.90
2023-04-08T21:21:33.012Z,99.90
2023-04-08T21:24:01.525Z,99.90
2023-04-08T21:26:29.634Z,99.90
2023-04-08T21:28:57.685Z,99.90
2023-04-08T21:31:25.776Z,99.90
2023-04-08T21:33:55.274Z,99.90
2023-04-08T21:36:23.386Z,99.90
2023-04-08T21:38:51.759Z,99.90
2023-04-08T21:41:20.007Z,99.90
2023-04-08T21:43:48.515Z,99.90
2023-04-08T21:46:16.573Z,99.90
2023-04-08T21:48:44.584Z,99.90
2023-04-08T21:51:17.809Z,99.90
2023-04-08T21:53:46.303Z,99.90
2023-04-08T21:56:14.351Z,99.90
2023-04-08T21:58:42.365Z,99.90
2023-04-08T22:01:10.389Z,99.90
2023-04-08T22:03:38.512Z,99.90
2023-04-08T22:06:12.585Z,99.90
2023-04-08T22:08:43.982Z,99.90
2023-04-08T22:11:13.564Z,99.90
2023-04-08T22:13:41.566Z,99.90
2023-04-08T22:16:11.002Z,99.90
2023-04-08T22:18:39.032Z,99.90
2023-04-08T22:21:07.592Z,99.90
2023-04-08T22:23:35.551Z,99.90
2023-04-08T22:26:05.008Z,99.90
2023-04-08T22:28:34.307Z,99.90
2023-04-08T22:31:02.398Z,99.90
2023-04-08T22:33:30.526Z,99.90
2023-04-08T22:35:58.800Z,99.90
2023-04-08T22:38:26.829Z,99.90
2023-04-08T22:40:54.815Z,99.90
2023-04-08T22:43:24.164Z,99.90
2023-04-08T22:45:52.261Z,99.90
2023-04-08T22:48:20.288Z,99.90
2023-04-08T22:50:48.281Z,99.90
2023-04-08T22:53:16.299Z,99.90
2023-04-08T22:55:44.255Z,99.90
2023-04-08T22:58:12.769Z,99.90
2023-04-08T23:00:42.219Z,99.90
2023-04-08T23:03:10.446Z,99.90
2023-04-08T23:05:38.553Z,99.90
2023-04-08T23:08:06.638Z,99.90
2023-04-08T23:10:34.626Z,99.90
2023-04-08T23:13:02.581Z,99.90
2023-04-08T23:15:30.983Z,99.90
2023-04-08T23:18:00.392Z,99.90
2023-04-08T23:20:28.419Z,99.90
2023-04-08T23:22:56.622Z,99.90
2023-04-08T23:25:24.642Z,99.90
2023-04-08T23:27:52.563Z,99.90
2023-04-08T23:30:20.621Z,99.90
2023-04-08T23:32:48.662Z,99.90
2023-04-08T23:35:18.156Z,99.90
2023-04-08T23:37:46.258Z,99.90
2023-04-08T23:40:14.349Z,99.90
2023-04-08T23:42:42.387Z,99.90
2023-04-08T23:45:11.120Z,99.90
2023-04-08T23:47:39.175Z,99.90
2023-04-08T23:50:08.732Z,99.90
2023-04-08T23:52:38.175Z,99.90
2023-04-08T23:55:07.020Z,99.90
2023-04-08T23:57:35.024Z,99.90
